createdAt,value
2016-04-25T12:20:38.840Z,1003.62
2016-04-25T12:22:38.908Z,1003.57
2016-04-25T12:48:45.165Z,1003.17
2016-04-25T12:49:45.200Z,1003.2
2016-04-25T12:50:45.233Z,1003.15
2016-04-25T12:51:45.266Z,1003.16
2016-04-25T12:52:45.316Z,1003.16
2016-04-25T12:53:45.351Z,1003.14
2016-04-25T12:54:45.384Z,1003.13
2016-04-25T12:55:45.435Z,1003.13
2016-04-25T12:56:45.473Z,1003.08
2016-04-25T12:57:45.554Z,1003.11
2016-04-25T12:58:45.541Z,1003.1
2016-04-25T12:59:45.637Z,1003.09
2016-04-25T13:00:45.624Z,1003.07
2016-04-25T13:01:45.674Z,1003.1
2016-04-25T13:02:45.708Z,1003.09
2016-04-25T13:03:45.867Z,1003.02
2016-04-25T13:04:45.792Z,1002.95
2016-04-25T13:05:45.856Z,1002.99
2016-04-25T13:06:45.906Z,1003.02
2016-04-25T13:07:45.909Z,1002.94
2016-04-25T13:08:45.959Z,1003
2016-04-25T13:09:46.008Z,1003
2016-04-25T13:10:46.151Z,1002.87
2016-04-25T13:11:46.092Z,1002.84
2016-04-25T13:12:46.125Z,1002.85
2016-04-25T13:13:46.174Z,1002.79
2016-04-25T13:14:46.225Z,1002.76
2016-04-25T13:15:46.259Z,1002.69
2016-04-25T13:16:46.308Z,1002.67
2016-04-25T13:17:46.349Z,1002.72
2016-04-25T13:18:46.382Z,1002.76
2016-04-25T13:19:46.432Z,1002.66
2016-04-25T13:20:46.467Z,1002.7
2016-04-25T13:21:46.531Z,1002.68
2016-04-25T13:22:46.565Z,1002.71
2016-04-25T13:23:46.615Z,1002.7
2016-04-25T13:24:46.648Z,1002.66
2016-04-25T13:25:46.683Z,1002.68
2016-04-25T13:26:46.733Z,1002.67
2016-04-25T13:27:46.781Z,1002.64
2016-04-25T13:28:46.816Z,1002.59
2016-04-25T13:29:46.866Z,1002.6
2016-04-25T13:30:46.915Z,1002.62
2016-04-25T13:31:46.949Z,1002.62
2016-04-25T13:32:46.999Z,1002.52
2016-04-25T13:33:47.033Z,1002.58
2016-04-25T13:34:47.083Z,1002.54
2016-04-25T13:35:47.132Z,1002.56
2016-04-25T13:36:47.165Z,1002.54
2016-04-25T13:37:47.216Z,1002.51
2016-04-25T13:38:47.265Z,1002.52
2016-04-25T13:39:47.299Z,1002.54
2016-04-25T13:40:47.349Z,1002.49
2016-04-25T13:41:47.398Z,1002.47
2016-04-25T13:42:47.432Z,1002.51
2016-04-25T13:43:47.482Z,1002.45
2016-04-25T13:44:48.078Z,1002.49
2016-04-25T13:45:47.565Z,1002.46
2016-04-25T13:46:47.614Z,1002.47
2016-04-25T13:47:47.648Z,1002.43
2016-04-25T13:48:47.698Z,1002.4
2016-04-25T13:49:47.748Z,1002.38
2016-04-25T13:50:47.782Z,1002.31
2016-04-25T13:51:47.831Z,1002.29
2016-04-25T13:52:47.865Z,1002.27
2016-04-25T13:53:47.914Z,1002.21
2016-04-25T13:54:47.964Z,1002.2
2016-04-25T13:55:47.998Z,1002.22
2016-04-25T13:56:48.047Z,1002.21
2016-04-25T13:57:48.097Z,1002.21
2016-04-25T13:58:48.131Z,1002.23
2016-04-25T13:59:48.181Z,1002.16
2016-04-25T14:00:48.231Z,1002.19
2016-04-25T14:01:48.269Z,1002.19
2016-04-25T14:02:48.319Z,1002.14
2016-04-25T14:03:48.353Z,1002.16
2016-04-25T14:04:48.402Z,1002.2
2016-04-25T14:05:48.452Z,1002.16
2016-04-25T14:06:48.485Z,1002.14
2016-04-25T14:07:48.535Z,1002.18
2016-04-25T14:08:48.569Z,1002.1
2016-04-25T14:09:48.619Z,1002.12
2016-04-25T14:10:48.668Z,1002.11
2016-04-25T14:11:48.702Z,1002.09
2016-04-25T14:12:48.751Z,1002.07
2016-04-25T14:13:48.786Z,1002.07
2016-04-25T14:14:49.085Z,1002.04
2016-04-25T14:15:48.885Z,1001.99
2016-04-25T14:16:48.918Z,1002.03
2016-04-25T14:17:48.976Z,1002.04
2016-04-25T14:18:49.071Z,1001.96
2016-04-25T14:19:49.165Z,1001.96
2016-04-25T14:20:49.242Z,1001.93
2016-04-25T14:21:49.320Z,1001.96
2016-04-25T14:22:49.406Z,1001.97
2016-04-25T14:23:49.472Z,1001.95
2016-04-25T14:24:49.538Z,1001.96
2016-04-25T14:25:49.619Z,1001.97
2016-04-25T14:26:49.669Z,1001.9
2016-04-25T14:27:49.715Z,1001.97
2016-04-25T14:28:49.755Z,1001.96
2016-04-25T14:29:49.811Z,1001.96
2016-04-25T14:30:49.866Z,1001.93
2016-04-25T14:31:49.906Z,1001.9
2016-04-25T14:32:49.960Z,1001.93
2016-04-25T14:33:49.996Z,1001.9
2016-04-25T14:34:50.048Z,1001.91
2016-04-25T14:35:50.099Z,1001.88
2016-04-25T14:36:50.135Z,1001.86
2016-04-25T14:37:50.186Z,1001.85
2016-04-25T14:38:50.237Z,1001.83
2016-04-25T14:39:50.271Z,1001.86
2016-04-25T14:40:50.322Z,1001.77
2016-04-25T14:41:50.357Z,1001.88
2016-04-25T14:42:50.407Z,1001.9
2016-04-25T14:43:50.457Z,1001.84
2016-04-25T14:44:50.757Z,1001.85
2016-04-25T14:45:50.541Z,1001.88
2016-04-25T14:46:50.607Z,1001.83
2016-04-25T14:47:50.641Z,1001.8
2016-04-25T14:48:50.674Z,1001.8
2016-04-25T14:49:50.724Z,1001.81
2016-04-25T14:50:50.758Z,1001.8
2016-04-25T14:51:50.808Z,1001.84
2016-04-25T14:52:50.857Z,1001.8
2016-04-25T14:53:50.891Z,1001.76
2016-04-25T14:54:50.941Z,1001.76
2016-04-25T14:55:50.990Z,1001.82
2016-04-25T14:56:51.039Z,1001.75
2016-04-25T14:57:51.074Z,1001.77
2016-04-25T14:58:51.123Z,1001.81
2016-04-25T14:59:51.158Z,1001.75
2016-04-25T15:00:51.207Z,1001.83
2016-04-25T15:01:51.257Z,1001.82
2016-04-25T15:02:51.290Z,1001.77
2016-04-25T15:03:51.324Z,1001.81
2016-04-25T15:04:51.374Z,1001.79
2016-04-25T15:05:51.424Z,1001.79
2016-04-25T15:06:51.458Z,1001.83
2016-04-25T15:07:51.507Z,1001.78
2016-04-25T15:08:51.557Z,1001.78
2016-04-25T15:09:51.591Z,1001.77
2016-04-25T15:10:51.641Z,1001.93
2016-04-25T15:11:51.674Z,1001.83
2016-04-25T15:12:51.723Z,1001.79
2016-04-25T15:13:51.773Z,1001.87
2016-04-25T15:14:51.823Z,1001.81
2016-04-25T15:15:51.857Z,1001.79
2016-04-25T15:16:51.907Z,1001.79
2016-04-25T15:17:51.941Z,1001.86
2016-04-25T15:18:51.990Z,1001.73
2016-04-25T15:19:52.024Z,1001.66
2016-04-25T15:20:52.073Z,1001.7
2016-04-25T15:21:52.123Z,1001.68
2016-04-25T15:22:52.157Z,1001.68
2016-04-25T15:23:52.206Z,1001.67
2016-04-25T15:24:52.256Z,1001.65
2016-04-25T15:25:52.306Z,1001.64
2016-04-25T15:26:52.340Z,1001.61
2016-04-25T15:27:52.389Z,1001.65
2016-04-25T15:28:52.423Z,1001.55
2016-04-25T15:29:52.817Z,1001.57
2016-04-25T15:30:52.506Z,1001.58
2016-04-25T15:31:52.556Z,1001.64
2016-04-25T15:32:52.606Z,1001.55
2016-04-25T15:33:52.656Z,1001.51
2016-04-25T15:34:52.689Z,1001.56
2016-04-25T15:35:52.739Z,1001.47
2016-04-25T15:36:52.788Z,1001.48
2016-04-25T15:37:52.822Z,1001.45
2016-04-25T15:38:52.872Z,1001.42
2016-04-25T15:39:52.906Z,1001.46
2016-04-25T15:40:52.955Z,1001.4
2016-04-25T15:41:53.005Z,1001.43
2016-04-25T15:42:53.039Z,1001.41
2016-04-25T15:43:53.088Z,1001.33
2016-04-25T15:44:53.185Z,1001.41
2016-04-25T15:45:53.172Z,1001.4
2016-04-25T15:46:53.221Z,1001.42
2016-04-25T15:47:53.255Z,1001.37
2016-04-25T15:48:53.305Z,1001.35
2016-04-25T15:49:53.354Z,1001.29
2016-04-25T15:50:53.388Z,1001.32
2016-04-25T15:51:53.438Z,1001.29
2016-04-25T15:52:53.472Z,1001.28
2016-04-25T15:53:53.521Z,1001.32
2016-04-25T15:54:53.571Z,1001.34
2016-04-25T15:55:53.621Z,1001.36
2016-04-25T15:56:53.655Z,1001.32
2016-04-25T15:57:53.704Z,1001.3
2016-04-25T15:58:53.737Z,1001.34
2016-04-25T15:59:54.070Z,1001.37
2016-04-25T16:00:53.900Z,1001.37
2016-04-25T16:01:53.886Z,1001.42
2016-04-25T16:02:53.921Z,1001.32
2016-04-25T16:03:53.970Z,1001.33
2016-04-25T16:04:54.004Z,1001.27
2016-04-25T16:05:54.054Z,1001.33
2016-04-25T16:06:54.089Z,1001.31
2016-04-25T16:07:54.137Z,1001.27
2016-04-25T16:08:54.187Z,1001.24
2016-04-25T16:09:54.236Z,1001.29
2016-04-25T16:10:54.286Z,1001.27
2016-04-25T16:11:54.335Z,1001.24
2016-04-25T16:12:54.369Z,1001.25
2016-04-25T16:13:54.404Z,1001.25
2016-04-25T16:14:54.446Z,1001.22
2016-04-25T16:15:54.495Z,1001.26
2016-04-25T16:16:54.545Z,1001.18
2016-04-25T16:17:54.579Z,1001.22
2016-04-25T16:18:54.628Z,1001.23
2016-04-25T16:19:54.663Z,1001.23
2016-04-25T16:20:54.712Z,1001.19
2016-04-25T16:21:54.766Z,1001.29
2016-04-25T16:22:54.801Z,1001.25
2016-04-25T16:23:54.850Z,1001.21
2016-04-25T16:24:54.885Z,1001.17
2016-04-25T16:25:54.934Z,1001.22
2016-04-25T16:26:54.983Z,1001.2
2016-04-25T16:27:55.018Z,1001.19
2016-04-25T16:28:55.067Z,1001.23
2016-04-25T16:29:55.116Z,1001.23
2016-04-25T16:30:55.151Z,1001.21
2016-04-25T16:31:55.199Z,1001.13
2016-04-25T16:32:55.249Z,1001.19
2016-04-25T16:33:55.283Z,1001.21
2016-04-25T16:34:55.332Z,1001.17
2016-04-25T16:35:55.382Z,1001.12
2016-04-25T16:36:55.417Z,1001.11
2016-04-25T16:37:55.465Z,1001.13
2016-04-25T16:38:55.515Z,1001.06
2016-04-25T16:39:55.550Z,1001.11
2016-04-25T16:40:55.599Z,1001.13
2016-04-25T16:41:55.648Z,1001.01
2016-04-25T16:42:55.683Z,1001.09
2016-04-25T16:43:55.732Z,1001.02
2016-04-25T16:44:55.766Z,1001.08
2016-04-25T16:45:55.816Z,1001.05
2016-04-25T16:46:55.865Z,1001.05
2016-04-25T16:47:55.899Z,1001.08
2016-04-25T16:48:55.950Z,1001.09
2016-04-25T16:49:55.998Z,1001.12
2016-04-25T16:50:56.032Z,1001.11
2016-04-25T16:51:56.082Z,1001.05
2016-04-25T16:52:56.131Z,1001.05
2016-04-25T16:53:56.166Z,1001.08
2016-04-25T16:54:56.215Z,1001.09
2016-04-25T16:55:56.249Z,1001.01
2016-04-25T16:56:56.299Z,1001.02
2016-04-25T16:57:56.348Z,1001.06
2016-04-25T16:58:56.397Z,1001.05
2016-04-25T16:59:56.666Z,1001.07
2016-04-25T17:00:56.481Z,1001
2016-04-25T17:01:56.515Z,1001.04
2016-04-25T17:02:56.565Z,1001.04
2016-04-25T17:03:56.599Z,1001.1
2016-04-25T17:04:56.648Z,1000.99
2016-04-25T17:05:56.698Z,1001
2016-04-25T17:06:56.748Z,1000.97
2016-04-25T17:07:56.781Z,1000.98
2016-04-25T17:08:56.831Z,1000.95
2016-04-25T17:09:56.865Z,1000.88
2016-04-25T17:10:56.929Z,1000.92
2016-04-25T17:11:56.964Z,1000.93
2016-04-25T17:12:57.014Z,1000.87
2016-04-25T17:13:57.048Z,1000.88
2016-04-25T17:14:57.081Z,1000.89
2016-04-25T17:15:57.131Z,1000.92
2016-04-25T17:16:57.181Z,1000.89
2016-04-25T17:17:57.230Z,1000.88
2016-04-25T17:18:57.264Z,1000.84
2016-04-25T17:19:57.313Z,1000.82
2016-04-25T17:20:57.364Z,1000.84
2016-04-25T17:21:57.397Z,1000.84
2016-04-25T17:22:57.447Z,1000.83
2016-04-25T17:23:57.480Z,1000.79
2016-04-25T17:24:57.530Z,1000.77
2016-04-25T17:25:57.580Z,1000.78
2016-04-25T17:26:57.614Z,1000.77
2016-04-25T17:27:57.663Z,1000.72
2016-04-25T17:28:57.713Z,1000.73
2016-04-25T17:29:57.747Z,1000.72
2016-04-25T17:30:57.797Z,1000.7
2016-04-25T17:31:57.830Z,1000.72
2016-04-25T17:32:57.880Z,1000.67
2016-04-25T17:33:57.930Z,1000.7
2016-04-25T17:34:57.963Z,1000.64
2016-04-25T17:35:58.013Z,1000.67
2016-04-25T17:36:58.063Z,1000.69
2016-04-25T17:37:58.096Z,1000.66
2016-04-25T17:38:58.146Z,1000.61
2016-04-25T17:39:58.196Z,1000.65
2016-04-25T17:40:58.229Z,1000.66
2016-04-25T17:41:58.279Z,1000.67
2016-04-25T17:42:58.313Z,1000.72
2016-04-25T17:43:58.362Z,1000.72
2016-04-25T17:44:58.693Z,1000.67
2016-04-25T17:45:58.633Z,1000.62
2016-04-25T17:46:58.495Z,1000.65
2016-04-25T17:47:58.545Z,1000.64
2016-04-25T17:48:58.595Z,1000.6
2016-04-25T17:49:58.628Z,1000.6
2016-04-25T17:50:58.678Z,1000.6
2016-04-25T17:51:58.711Z,1000.55
2016-04-25T17:52:58.761Z,1000.66
2016-04-25T17:53:58.811Z,1000.55
2016-04-25T17:54:58.845Z,1000.53
2016-04-25T17:55:58.895Z,1000.61
2016-04-25T17:56:58.928Z,1000.58
2016-04-25T17:57:58.978Z,1000.62
2016-04-25T17:58:59.027Z,1000.57
2016-04-25T17:59:59.061Z,1000.56
2016-04-25T18:00:59.111Z,1000.6
2016-04-25T18:01:59.146Z,1000.56
2016-04-25T18:02:59.194Z,1000.54
2016-04-25T18:03:59.244Z,1000.51
2016-04-25T18:04:59.294Z,1000.51
2016-04-25T18:05:59.328Z,1000.51
2016-04-25T18:06:59.377Z,1000.46
2016-04-25T18:07:59.427Z,1000.5
2016-04-25T18:08:59.460Z,1000.46
2016-04-25T18:09:59.510Z,1000.52
2016-04-25T18:10:59.545Z,1000.46
2016-04-25T18:11:59.594Z,1000.44
2016-04-25T18:12:59.644Z,1000.39
2016-04-25T18:13:59.677Z,1000.46
2016-04-25T18:14:59.742Z,1000.4
2016-04-25T18:15:59.776Z,1000.37
2016-04-25T18:16:59.811Z,1000.36
2016-04-25T18:17:59.850Z,1000.37
2016-04-25T18:18:59.899Z,1000.36
2016-04-25T18:19:59.949Z,1000.32
2016-04-25T18:20:59.982Z,1000.37
2016-04-25T18:22:00.036Z,1000.31
2016-04-25T18:23:00.070Z,1000.33
2016-04-25T18:24:00.120Z,1000.36
2016-04-25T18:25:00.153Z,1000.34
2016-04-25T18:26:00.218Z,1000.34
2016-04-25T18:27:00.252Z,1000.37
2016-04-25T18:28:00.302Z,1000.33
2016-04-25T18:29:00.341Z,1000.29
2016-04-25T18:30:00.390Z,1000.29
2016-04-25T18:31:00.425Z,1000.31
2016-04-25T18:32:00.474Z,1000.32
2016-04-25T18:33:00.507Z,1000.31
2016-04-25T18:34:00.557Z,1000.27
2016-04-25T18:35:00.622Z,1000.24
2016-04-25T18:36:00.641Z,1000.24
2016-04-25T18:37:00.690Z,1000.28
2016-04-25T18:38:00.740Z,1000.28
2016-04-25T18:39:00.790Z,1000.3
2016-04-25T18:40:00.824Z,1000.26
2016-04-25T18:41:00.874Z,1000.28
2016-04-25T18:42:00.907Z,1000.3
2016-04-25T18:43:00.957Z,1000.3
2016-04-25T18:44:01.007Z,1000.31
2016-04-25T18:45:01.040Z,1000.31
2016-04-25T18:46:02.074Z,1000.26
2016-04-25T18:47:01.124Z,1000.33
2016-04-25T18:48:01.173Z,1000.27
2016-04-25T18:49:01.223Z,1000.27
2016-04-25T18:50:01.257Z,1000.24
2016-04-25T18:51:01.307Z,1000.26
2016-04-25T18:52:01.340Z,1000.27
2016-04-25T18:53:01.390Z,1000.27
2016-04-25T18:54:01.440Z,1000.25
2016-04-25T18:55:01.473Z,1000.19
2016-04-25T18:56:01.523Z,1000.21
2016-04-25T18:57:01.557Z,1000.23
2016-04-25T18:58:01.606Z,1000.18
2016-04-25T18:59:01.640Z,1000.22
2016-04-25T19:00:01.847Z,1000.22
2016-04-25T19:01:02.271Z,1000.14
2016-04-25T19:02:01.912Z,1000.19
2016-04-25T19:04:01.980Z,1000.11
2016-04-25T19:05:02.044Z,1000.12
2016-04-25T19:06:02.078Z,1000.16
2016-04-25T19:07:02.003Z,1000.15
2016-04-25T19:08:02.036Z,1000.12
2016-04-25T19:09:02.071Z,1000.1
2016-04-25T19:10:02.121Z,1000.09
2016-04-25T19:11:02.155Z,1000.06
2016-04-25T19:12:02.205Z,1000.12
2016-04-25T19:13:02.254Z,1000.1
2016-04-25T19:14:02.287Z,1000.06
2016-04-25T19:15:02.337Z,1000.07
2016-04-25T19:16:02.371Z,1000
2016-04-25T19:17:02.421Z,1000.02
2016-04-25T19:18:02.455Z,1000
2016-04-25T19:19:02.504Z,1000.02
2016-04-25T19:20:02.554Z,1000.05
2016-04-25T19:21:02.604Z,1000.04
2016-04-25T19:22:02.637Z,1000.02
2016-04-25T19:23:02.665Z,999.99
2016-04-25T19:24:02.714Z,1000.02
2016-04-25T19:25:02.765Z,1000.05
2016-04-25T19:26:02.798Z,1000.03
2016-04-25T19:27:02.848Z,999.95
2016-04-25T19:28:02.881Z,999.98
2016-04-25T19:29:02.931Z,1000.01
2016-04-25T19:30:03.371Z,999.96
2016-04-25T19:31:03.014Z,999.92
2016-04-25T19:32:03.049Z,999.91
2016-04-25T19:33:03.099Z,999.9
2016-04-25T19:34:03.147Z,999.91
2016-04-25T19:35:03.197Z,999.89
2016-04-25T19:36:03.231Z,999.89
2016-04-25T19:37:03.280Z,999.87
2016-04-25T19:38:03.315Z,999.87
2016-04-25T19:39:03.365Z,999.82
2016-04-25T19:40:03.399Z,999.87
2016-04-25T19:41:03.448Z,999.79
2016-04-25T19:42:03.499Z,999.75
2016-04-25T19:43:03.532Z,999.8
2016-04-25T19:44:03.597Z,999.77
2016-04-25T19:45:03.896Z,999.75
2016-04-25T19:46:03.665Z,999.76
2016-04-25T19:47:03.699Z,999.77
2016-04-25T19:48:03.748Z,999.74
2016-04-25T19:49:03.782Z,999.77
2016-04-25T19:50:03.832Z,999.72
2016-04-25T19:51:03.882Z,999.72
2016-04-25T19:52:03.931Z,999.69
2016-04-25T19:53:03.965Z,999.67
2016-04-25T19:54:04.014Z,999.73
2016-04-25T19:55:04.048Z,999.73
2016-04-25T19:56:04.098Z,999.69
2016-04-25T19:57:04.131Z,999.66
2016-04-25T19:58:04.181Z,999.68
2016-04-25T19:59:04.231Z,999.69
2016-04-25T20:00:04.749Z,999.64
2016-04-25T20:01:04.314Z,999.69
2016-04-25T20:02:04.364Z,999.69
2016-04-25T20:03:04.397Z,999.71
2016-04-25T20:04:04.448Z,999.69
2016-04-25T20:05:04.481Z,999.63
2016-04-25T20:06:04.546Z,999.64
2016-04-25T20:07:04.580Z,999.58
2016-04-25T20:08:04.647Z,999.57
2016-04-25T20:09:04.649Z,999.58
2016-04-25T20:10:04.699Z,999.6
2016-04-25T20:11:04.747Z,999.59
2016-04-25T20:12:04.796Z,999.6
2016-04-25T20:13:04.832Z,999.59
2016-04-25T20:14:04.880Z,999.55
2016-04-25T20:15:04.915Z,999.55
2016-04-25T20:16:04.964Z,999.56
2016-04-25T20:17:04.998Z,999.52
2016-04-25T20:18:05.048Z,999.51
2016-04-25T20:19:05.097Z,999.51
2016-04-25T20:20:05.146Z,999.52
2016-04-25T20:21:05.182Z,999.49
2016-04-25T20:22:05.231Z,999.49
2016-04-25T20:23:05.265Z,999.49
2016-04-25T20:24:05.314Z,999.41
2016-04-25T20:25:05.348Z,999.46
2016-04-25T20:26:05.398Z,999.47
2016-04-25T20:27:05.447Z,999.43
2016-04-25T20:28:05.481Z,999.42
2016-04-25T20:29:05.562Z,999.42
2016-04-25T20:30:05.564Z,999.44
2016-04-25T20:31:06.598Z,999.43
2016-04-25T20:32:05.664Z,999.35
2016-04-25T20:33:05.714Z,999.37
2016-04-25T20:34:05.747Z,999.34
2016-04-25T20:35:05.781Z,999.35
2016-04-25T20:36:05.831Z,999.33
2016-04-25T20:37:05.880Z,999.34
2016-04-25T20:38:06.001Z,999.32
2016-04-25T20:39:05.987Z,999.3
2016-04-25T20:40:06.007Z,999.32
2016-04-25T20:41:06.056Z,999.33
2016-04-25T20:42:06.090Z,999.26
2016-04-25T20:43:06.175Z,999.33
2016-04-25T20:44:06.178Z,999.21
2016-04-25T20:45:06.217Z,999.27
2016-04-25T20:46:06.267Z,999.22
2016-04-25T20:47:06.316Z,999.23
2016-04-25T20:48:06.350Z,999.14
2016-04-25T20:49:06.415Z,999.2
2016-04-25T20:50:06.450Z,999.19
2016-04-25T20:51:06.483Z,999.16
2016-04-25T20:52:06.549Z,999.13
2016-04-25T20:53:06.566Z,999.14
2016-04-25T20:54:06.616Z,999.14
2016-04-25T20:55:06.666Z,999.16
2016-04-25T20:56:06.778Z,999.12
2016-04-25T20:57:06.749Z,999.21
2016-04-25T20:58:06.815Z,999.1
2016-04-25T20:59:06.832Z,999.11
2016-04-25T21:00:06.882Z,999.12
2016-04-25T21:01:06.917Z,999.14
2016-04-25T21:02:06.966Z,999.07
2016-04-25T21:03:07.000Z,999.09
2016-04-25T21:04:07.050Z,999.11
2016-04-25T21:05:07.099Z,999.07
2016-04-25T21:06:07.133Z,999.07
2016-04-25T21:07:07.183Z,999.05
2016-04-25T21:08:07.231Z,999.02
2016-04-25T21:09:07.267Z,998.98
2016-04-25T21:10:07.316Z,999.01
2016-04-25T21:11:07.349Z,998.99
2016-04-25T21:12:07.400Z,999.02
2016-04-25T21:13:07.449Z,998.95
2016-04-25T21:14:07.483Z,998.96
2016-04-25T21:15:07.580Z,998.87
2016-04-25T21:16:07.582Z,998.94
2016-04-25T21:17:07.616Z,998.89
2016-04-25T21:18:07.666Z,998.9
2016-04-25T21:19:07.699Z,998.87
2016-04-25T21:20:07.749Z,998.84
2016-04-25T21:21:07.799Z,998.88
2016-04-25T21:22:07.849Z,998.87
2016-04-25T21:23:07.882Z,998.79
2016-04-25T21:24:07.915Z,998.82
2016-04-25T21:25:07.966Z,998.8
2016-04-25T21:26:08.000Z,998.74
2016-04-25T21:27:08.049Z,998.79
2016-04-25T21:28:08.129Z,998.75
2016-04-25T21:29:08.148Z,998.77
2016-04-25T21:30:08.181Z,998.73
2016-04-25T21:31:08.231Z,998.7
2016-04-25T21:32:08.266Z,998.68
2016-04-25T21:33:08.315Z,998.71
2016-04-25T21:34:08.348Z,998.67
2016-04-25T21:35:08.398Z,998.62
2016-04-25T21:36:08.448Z,998.68
2016-04-25T21:37:08.482Z,998.59
2016-04-25T21:38:08.531Z,998.65
2016-04-25T21:39:08.597Z,998.59
2016-04-25T21:40:08.614Z,998.56
2016-04-25T21:41:08.664Z,998.55
2016-04-25T21:42:08.698Z,998.59
2016-04-25T21:43:08.748Z,998.53
2016-04-25T21:44:08.782Z,998.55
2016-04-25T21:45:08.832Z,998.45
2016-04-25T21:46:09.084Z,998.52
2016-04-25T21:47:08.916Z,998.45
2016-04-25T21:48:08.964Z,998.49
2016-04-25T21:49:08.999Z,998.42
2016-04-25T21:50:09.048Z,998.39
2016-04-25T21:51:09.083Z,998.44
2016-04-25T21:52:09.194Z,998.39
2016-04-25T21:53:09.166Z,998.4
2016-04-25T21:54:09.215Z,998.41
2016-04-25T21:55:09.265Z,998.32
2016-04-25T21:56:09.298Z,998.27
2016-04-25T21:57:09.364Z,998.27
2016-04-25T21:58:09.398Z,998.24
2016-04-25T21:59:09.432Z,998.22
2016-04-25T22:00:09.466Z,998.18
2016-04-25T22:01:09.515Z,998.13
2016-04-25T22:02:09.565Z,998.12
2016-04-25T22:03:09.599Z,998.16
2016-04-25T22:04:09.649Z,998.13
2016-04-25T22:05:09.682Z,998.11
2016-04-25T22:06:09.732Z,998.13
2016-04-25T22:07:09.765Z,998.14
2016-04-25T22:08:09.815Z,998.15
2016-04-25T22:09:09.850Z,998.1
2016-04-25T22:10:09.899Z,998.1
2016-04-25T22:11:09.948Z,998.06
2016-04-25T22:12:09.983Z,998.06
2016-04-25T22:13:10.032Z,998.02
2016-04-25T22:14:10.066Z,997.98
2016-04-25T22:15:10.116Z,997.96
2016-04-25T22:16:10.165Z,997.96
2016-04-25T22:17:10.199Z,997.95
2016-04-25T22:18:10.249Z,997.91
2016-04-25T22:19:10.283Z,997.93
2016-04-25T22:20:10.332Z,997.9
2016-04-25T22:21:10.366Z,997.88
2016-04-25T22:22:10.416Z,997.9
2016-04-25T22:23:10.465Z,997.85
2016-04-25T22:24:10.499Z,997.84
2016-04-25T22:25:10.549Z,997.85
2016-04-25T22:26:10.583Z,997.81
2016-04-25T22:27:10.633Z,997.77
2016-04-25T22:28:10.666Z,997.74
2016-04-25T22:29:10.715Z,997.76
2016-04-25T22:30:10.750Z,997.74
2016-04-25T22:31:10.815Z,997.77
2016-04-25T22:32:10.849Z,997.69
2016-04-25T22:33:10.882Z,997.71
2016-04-25T22:34:10.948Z,997.74
2016-04-25T22:35:10.966Z,997.73
2016-04-25T22:36:11.016Z,997.71
2016-04-25T22:37:11.050Z,997.67
2016-04-25T22:38:11.099Z,997.67
2016-04-25T22:39:11.134Z,997.62
2016-04-25T22:40:11.183Z,997.54
2016-04-25T22:41:11.232Z,997.59
2016-04-25T22:42:11.267Z,997.59
2016-04-25T22:43:11.316Z,997.63
2016-04-25T22:44:11.350Z,997.6
2016-04-25T22:45:11.400Z,997.52
2016-04-25T22:46:11.433Z,997.56
2016-04-25T22:47:11.483Z,997.51
2016-04-25T22:48:11.517Z,997.53
2016-04-25T22:49:11.567Z,997.54
2016-04-25T22:50:11.601Z,997.45
2016-04-25T22:51:11.650Z,997.46
2016-04-25T22:52:11.700Z,997.41
2016-04-25T22:53:11.733Z,997.45
2016-04-25T22:54:11.783Z,997.38
2016-04-25T22:55:11.816Z,997.39
2016-04-25T22:56:11.866Z,997.33
2016-04-25T22:57:11.900Z,997.31
2016-04-25T22:58:11.950Z,997.3
2016-04-25T22:59:11.999Z,997.35
2016-04-25T23:00:12.033Z,997.35
2016-04-25T23:01:12.490Z,997.27
2016-04-25T23:02:12.118Z,997.29
2016-04-25T23:03:12.166Z,997.27
2016-04-25T23:04:12.201Z,997.24
2016-04-25T23:05:12.266Z,997.26
2016-04-25T23:06:12.299Z,997.21
2016-04-25T23:07:12.334Z,997.19
2016-04-25T23:08:12.368Z,997.16
2016-04-25T23:09:12.417Z,997.18
2016-04-25T23:10:12.452Z,997.13
2016-04-25T23:11:12.501Z,997.12
2016-04-25T23:12:12.551Z,997.12
2016-04-25T23:13:12.585Z,997.1
2016-04-25T23:14:12.634Z,997.08
2016-04-25T23:15:12.669Z,997.03
2016-04-25T23:16:12.812Z,996.98
2016-04-25T23:17:12.752Z,997.03
2016-04-25T23:18:12.802Z,997.04
2016-04-25T23:19:12.851Z,997.07
2016-04-25T23:20:12.885Z,996.96
2016-04-25T23:21:12.934Z,996.9
2016-04-25T23:22:12.969Z,996.88
2016-04-25T23:23:13.018Z,996.89
2016-04-25T23:24:13.053Z,996.86
2016-04-25T23:25:13.132Z,996.86
2016-04-25T23:26:13.208Z,996.8
2016-04-25T23:27:13.299Z,996.85
2016-04-25T23:28:13.387Z,996.78
2016-04-25T23:29:13.463Z,996.77
2016-04-25T23:30:13.518Z,996.7
2016-04-25T23:31:13.769Z,996.69
2016-04-25T23:32:13.646Z,996.68
2016-04-25T23:33:13.711Z,996.71
2016-04-25T23:34:13.759Z,996.63
2016-04-25T23:35:13.800Z,996.63
2016-04-25T23:36:13.855Z,996.62
2016-04-25T23:37:13.893Z,996.58
2016-04-25T23:38:13.947Z,996.59
2016-04-25T23:39:13.987Z,996.58
2016-04-25T23:40:14.039Z,996.56
2016-04-25T23:41:14.091Z,996.52
2016-04-25T23:42:14.126Z,996.56
2016-04-25T23:43:14.163Z,996.51
2016-04-25T23:44:14.213Z,996.55
2016-04-25T23:45:14.264Z,996.45
2016-04-25T23:46:15.955Z,996.49
2016-04-25T23:47:14.348Z,996.49
2016-04-25T23:48:14.384Z,996.45
2016-04-25T23:49:14.435Z,996.4
2016-04-25T23:50:14.484Z,996.4
2016-04-25T23:51:14.519Z,996.43
2016-04-25T23:52:14.553Z,996.43
2016-04-25T23:53:14.618Z,996.42
2016-04-25T23:54:14.637Z,996.42
2016-04-25T23:55:14.687Z,996.36
2016-04-25T23:56:14.721Z,996.31
2016-04-25T23:57:14.770Z,996.34
2016-04-25T23:58:14.820Z,996.32
2016-04-25T23:59:14.854Z,996.28
